RJFFRJOM

Guest
Details From RJFF - FUKUOKA
To RJOM - MATSUYAMA
Flight Number -
Tags generated
Created
Modified
Stats Distance 113 nm / 210 km
Max Altitude 7,600 ft / 2,316 m
Waypoints 3
Social Downloads 0
Likes 0
Share VATSIM

Download

Looking for another format? Having issues loading an existing format? Contact us
Advertisement - Login to hide

Notes

Basic altitude profile: - Ascent Rate: 2500ft/min - Ascent Speed: 250kts - Cruise Altitude: 35000ft - Cruise Speed: 420kts - Descent Rate: 1500ft/min - Descent Speed: 250kts Options: - Use NATs: yes - Use PACOTS: yes - Use low airways: yes - Use high airways: yes

Route

RJFF YANAI RJOM

ID Type Via Altitude Latitude Longitude Leg Dist Tot Dist Heading (true) Name
O RJFF APT - 0 ft / 0 m 33.58594˚ 130.45069˚ - 0 nm - FUKUOKA
YANAI FIX - 7,600 ft / 2,316 m 33.77303˚ 131.98809˚ 77 nm 77 nm 81° / 82° -
O RJOM APT - 0 ft / 0 m 33.82726˚ 132.69963˚ 35 nm 113 nm 85° / 85° MATSUYAMA

Altitude Profile

Advertisement - Login to hide

RJFF

Details ICAO RJFF (FUK)
Name FUKUOKA
Region Japan
Timezone Asia/Tokyo (UTC+9.0)
Stats Elevation 32 ft / 10 m (AMSL)
Location 33.585943° 130.450686°
Runways 1
Magnetic Variation 7.481° W

METAR

RJFF 240400Z 32010KT CAVOK 25/09 Q1010

Decode

TAF

TAF RJFF 232309Z 2400/2506 32011KT 9999 FEW030 BECMG 2412/2415 16007KT BECMG 2503/2506 32008KT

Decode

Departure Runways

ID Width Length Bearing (true) Bearing (mag) Surface Threshold Offset Overrun Length
16 197 ft / 60 m 9,217 ft / 2,810 m 150.35° 157.83° Asphalt 0 ft / 0 m 719 ft / 219 m
34 197 ft / 60 m 9,217 ft / 2,810 m 330.35° 337.83° Asphalt 0 ft / 0 m 801 ft / 244 m

RJOM

Details ICAO RJOM (MYJ)
Name MATSUYAMA
Region Japan
Timezone Asia/Tokyo (UTC+9.0)
Stats Elevation 25 ft / 8 m (AMSL)
Location 33.827257° 132.699631°
Runways 1
Magnetic Variation 7.545° W

METAR

RJOM 240400Z 25005KT 9999 FEW020 19/15 Q1009

Decode

TAF

TAF RJOM 232307Z 2400/2506 30008KT 9999 FEW025 BECMG 2406/2408 12007KT BECMG 2421/2500 30005KT

Decode

Destination Runways

ID Width Length Bearing (true) Bearing (mag) Surface Threshold Offset Overrun Length
14 150 ft / 46 m 8,203 ft / 2,500 m 130.67° 138.22° Asphalt 0 ft / 0 m 206 ft / 63 m
32 150 ft / 46 m 8,203 ft / 2,500 m 310.68° 318.23° Asphalt 0 ft / 0 m 195 ft / 59 m

Popular Alternatives